createdAt,value
2022-10-13T00:00:55.314Z,6.67
2022-10-13T00:03:42.084Z,6.40
2022-10-13T00:06:27.805Z,6.97
2022-10-13T00:09:13.541Z,6.77
2022-10-13T00:11:59.024Z,6.10
2022-10-13T00:14:44.556Z,6.17
2022-10-13T00:17:30.129Z,6.07
2022-10-13T00:20:15.988Z,5.53
2022-10-13T00:23:01.828Z,5.40
2022-10-13T00:25:49.506Z,6.13
2022-10-13T00:28:35.289Z,5.20
2022-10-13T00:31:23.782Z,5.43
2022-10-13T00:34:09.501Z,5.90
2022-10-13T00:36:54.989Z,5.83
2022-10-13T00:39:40.563Z,6.17
2022-10-13T00:42:27.180Z,6.90
2022-10-13T00:45:26.990Z,6.53
2022-10-13T00:48:13.257Z,6.10
2022-10-13T00:50:59.198Z,6.57
2022-10-13T00:53:47.187Z,6.70
2022-10-13T00:56:35.613Z,6.13
2022-10-13T00:59:27.236Z,5.63
2022-10-13T01:02:13.152Z,6.27
2022-10-13T01:04:59.971Z,6.17
2022-10-13T01:07:49.045Z,5.80
2022-10-13T01:10:55.124Z,7.00
2022-10-13T01:13:59.032Z,6.13
2022-10-13T01:17:29.381Z,6.20
2022-10-13T01:20:37.403Z,5.47
2022-10-13T01:23:55.720Z,6.10
2022-10-13T01:27:06.388Z,5.30
2022-10-13T01:30:06.852Z,6.63
2022-10-13T01:33:12.404Z,6.30
2022-10-13T01:36:27.716Z,6.67
2022-10-13T01:39:31.811Z,6.40
2022-10-13T01:42:23.128Z,6.47
2022-10-13T01:45:12.412Z,6.37
2022-10-13T01:48:02.278Z,6.30
2022-10-13T01:50:49.628Z,5.63
2022-10-13T01:53:36.088Z,6.47
2022-10-13T01:56:21.707Z,6.43
2022-10-13T01:59:12.908Z,6.50
2022-10-13T02:02:23.391Z,6.43
2022-10-13T02:05:21.186Z,7.10
2022-10-13T02:08:15.148Z,6.20
2022-10-13T02:11:16.872Z,5.97
2022-10-13T02:14:14.229Z,6.50
2022-10-13T02:17:02.587Z,6.27
2022-10-13T02:19:48.185Z,6.67
2022-10-13T02:22:40.766Z,6.77
2022-10-13T02:25:27.319Z,6.43
2022-10-13T02:28:15.184Z,6.20
2022-10-13T02:31:07.042Z,6.30
2022-10-13T02:33:53.100Z,6.37
2022-10-13T02:36:39.671Z,6.50
2022-10-13T02:39:25.132Z,6.90
2022-10-13T02:42:10.691Z,6.93
2022-10-13T02:44:55.941Z,5.47
2022-10-13T02:47:41.678Z,6.13
2022-10-13T02:50:27.554Z,6.40
2022-10-13T02:53:15.293Z,6.80
2022-10-13T02:56:00.836Z,5.87
2022-10-13T02:58:46.671Z,6.90
2022-10-13T03:01:32.911Z,6.77
2022-10-13T03:04:18.695Z,7.43
2022-10-13T03:07:04.317Z,7.40
2022-10-13T03:09:50.020Z,7.30
2022-10-13T03:12:35.503Z,7.07
2022-10-13T03:15:21.200Z,6.40
2022-10-13T03:18:08.317Z,6.60
2022-10-13T03:21:01.951Z,7.07
2022-10-13T03:23:47.832Z,7.47
2022-10-13T03:26:34.040Z,6.67
2022-10-13T03:29:20.275Z,7.27
2022-10-13T03:32:05.849Z,6.67
2022-10-13T03:34:52.224Z,6.47
2022-10-13T03:37:37.857Z,5.93
2022-10-13T03:40:23.276Z,7.93
2022-10-13T03:43:08.836Z,7.83
2022-10-13T03:45:58.851Z,9.93
2022-10-13T03:48:45.036Z,9.77
2022-10-13T03:51:30.612Z,8.73
2022-10-13T03:54:16.494Z,8.70
2022-10-13T03:57:05.663Z,7.53
2022-10-13T03:59:51.645Z,8.23
2022-10-13T04:02:37.269Z,7.83
2022-10-13T04:05:22.793Z,7.60
2022-10-13T04:08:08.888Z,7.20
2022-10-13T04:11:09.278Z,6.97
2022-10-13T04:13:58.408Z,6.97
2022-10-13T04:16:44.014Z,7.43
2022-10-13T04:19:29.441Z,6.97
2022-10-13T04:22:15.097Z,6.60
2022-10-13T04:25:07.621Z,6.50
2022-10-13T04:27:53.442Z,6.70
2022-10-13T04:30:39.120Z,6.50
2022-10-13T04:33:24.976Z,6.70
2022-10-13T04:36:11.948Z,6.30
2022-10-13T04:38:57.761Z,6.50
2022-10-13T04:41:43.967Z,6.75
2022-10-13T04:44:29.700Z,6.33
2022-10-13T04:47:15.353Z,7.00
2022-10-13T04:50:00.917Z,6.80
2022-10-13T04:52:46.316Z,6.50
2022-10-13T04:55:35.235Z,5.40
2022-10-13T04:58:21.080Z,7.32
2022-10-13T05:01:08.835Z,8.50
2022-10-13T05:03:57.004Z,6.67
2022-10-13T05:07:05.355Z,7.45
2022-10-13T05:09:50.766Z,6.23
2022-10-13T05:12:36.481Z,6.53
2022-10-13T05:15:21.935Z,7.57
2022-10-13T05:18:07.552Z,7.40
2022-10-13T05:20:52.968Z,6.40
2022-10-13T05:23:39.216Z,6.67
2022-10-13T05:26:28.966Z,7.70
2022-10-13T05:29:15.135Z,7.03
2022-10-13T05:32:00.648Z,6.27
2022-10-13T05:34:48.583Z,6.20
2022-10-13T05:37:34.327Z,5.97
2022-10-13T05:40:23.161Z,6.83
2022-10-13T05:43:13.948Z,7.50
2022-10-13T05:46:00.374Z,7.27
2022-10-13T05:48:47.529Z,5.77
2022-10-13T05:51:39.911Z,6.53
2022-10-13T05:54:33.705Z,6.47
2022-10-13T05:57:26.792Z,7.07
2022-10-13T06:00:15.300Z,6.10
2022-10-13T06:03:27.966Z,8.73
2022-10-13T06:06:13.888Z,6.97
2022-10-13T06:09:01.093Z,7.17
2022-10-13T06:11:46.709Z,6.93
2022-10-13T06:14:32.782Z,7.13
2022-10-13T06:17:20.431Z,6.57
2022-10-13T06:20:07.992Z,6.80
2022-10-13T06:22:56.990Z,6.20
2022-10-13T06:25:53.483Z,6.13
2022-10-13T06:28:39.123Z,5.50
2022-10-13T06:31:24.583Z,6.43
2022-10-13T06:34:10.178Z,6.43
2022-10-13T06:36:55.744Z,5.67
2022-10-13T06:39:42.116Z,5.13
2022-10-13T06:42:30.932Z,5.93
2022-10-13T06:45:28.612Z,6.00
2022-10-13T06:48:14.125Z,6.70
2022-10-13T06:51:05.657Z,5.90
2022-10-13T06:53:51.130Z,6.13
2022-10-13T06:56:42.245Z,5.67
2022-10-13T06:59:29.407Z,6.20
2022-10-13T07:02:14.798Z,5.90
2022-10-13T07:05:00.520Z,5.70
2022-10-13T07:07:46.514Z,6.00
2022-10-13T07:10:32.312Z,5.53
2022-10-13T07:13:17.985Z,4.87
2022-10-13T07:16:04.599Z,5.23
2022-10-13T07:18:50.872Z,5.30
2022-10-13T07:21:36.834Z,6.13
2022-10-13T07:24:22.355Z,6.00
2022-10-13T07:27:08.098Z,5.70
2022-10-13T07:29:54.186Z,5.60
2022-10-13T07:32:42.038Z,4.57
2022-10-13T07:35:30.655Z,5.53
2022-10-13T07:38:16.552Z,5.90
2022-10-13T07:41:09.408Z,5.63
2022-10-13T07:43:58.297Z,6.07
2022-10-13T07:46:43.961Z,6.20
2022-10-13T07:49:29.344Z,6.40
2022-10-13T07:52:15.273Z,5.97
2022-10-13T07:55:00.740Z,6.47
2022-10-13T07:57:46.277Z,5.00
2022-10-13T08:00:31.640Z,5.57
2022-10-13T08:03:17.059Z,5.27
2022-10-13T08:06:04.781Z,5.47
2022-10-13T08:08:50.531Z,5.22
2022-10-13T08:11:38.539Z,4.63
2022-10-13T08:14:24.276Z,5.00
2022-10-13T08:17:09.578Z,6.15
2022-10-13T08:19:56.213Z,4.77
2022-10-13T08:22:44.752Z,4.93
2022-10-13T08:25:30.196Z,5.25
2022-10-13T08:28:21.372Z,5.95
2022-10-13T08:31:06.886Z,4.75
2022-10-13T08:33:52.725Z,5.10
2022-10-13T08:36:38.965Z,5.57
2022-10-13T08:39:25.421Z,5.75
2022-10-13T08:42:28.984Z,5.72
2022-10-13T08:48:33.153Z,6.22
2022-10-13T08:51:18.868Z,6.47
2022-10-13T08:54:05.840Z,6.15
2022-10-13T08:56:52.639Z,5.53
2022-10-13T08:59:38.732Z,6.00
2022-10-13T09:02:30.049Z,5.30
2022-10-13T09:05:41.324Z,6.18
2022-10-13T09:08:33.710Z,5.70
2022-10-13T09:11:20.252Z,5.15
2022-10-13T09:14:08.872Z,4.78
2022-10-13T09:16:56.570Z,6.13
2022-10-13T09:19:42.968Z,5.07
2022-10-13T09:22:30.681Z,6.45
2022-10-13T09:25:22.373Z,5.22
2022-10-13T09:28:22.657Z,5.20
2022-10-13T09:31:17.132Z,4.93
2022-10-13T09:34:23.511Z,5.43
2022-10-13T09:37:24.017Z,6.93
2022-10-13T09:40:19.647Z,6.00
2022-10-13T09:43:19.766Z,4.68
2022-10-13T09:46:19.322Z,4.82
2022-10-13T09:49:21.137Z,5.88
2022-10-13T09:52:14.667Z,5.90
2022-10-13T09:55:01.059Z,6.32
2022-10-13T09:57:49.511Z,6.18
2022-10-13T10:00:36.751Z,5.70
2022-10-13T10:03:35.457Z,5.15
2022-10-13T10:06:23.981Z,5.90
2022-10-13T10:09:36.570Z,5.35
2022-10-13T10:12:27.980Z,5.22
2022-10-13T10:15:43.488Z,5.72
2022-10-13T10:18:47.590Z,5.25
2022-10-13T10:21:53.250Z,6.25
2022-10-13T10:24:53.574Z,5.82
2022-10-13T10:27:48.545Z,5.07
2022-10-13T10:30:37.074Z,5.38
2022-10-13T10:33:48.897Z,5.53
2022-10-13T10:36:55.071Z,5.63
2022-10-13T10:39:51.471Z,6.03
2022-10-13T10:43:10.744Z,5.10
2022-10-13T10:45:58.649Z,5.90
2022-10-13T10:48:50.484Z,5.63
2022-10-13T10:51:37.882Z,6.97
2022-10-13T10:54:39.634Z,5.90
2022-10-13T10:57:29.844Z,4.43
2022-10-13T11:00:22.329Z,5.95
2022-10-13T11:03:23.110Z,5.38
2022-10-13T11:06:18.006Z,5.22
2022-10-13T11:09:05.607Z,5.63
2022-10-13T11:11:51.384Z,5.53
2022-10-13T11:14:37.950Z,5.40
2022-10-13T11:17:31.769Z,6.28
2022-10-13T11:20:17.994Z,5.97
2022-10-13T11:23:04.052Z,5.28
2022-10-13T11:25:49.897Z,5.53
2022-10-13T11:28:42.104Z,5.40
2022-10-13T11:31:47.448Z,4.88
2022-10-13T11:34:33.185Z,5.80
2022-10-13T11:37:19.112Z,5.32
2022-10-13T11:40:19.482Z,5.15
2022-10-13T11:43:23.912Z,5.07
2022-10-13T11:46:30.775Z,5.28
2022-10-13T11:49:37.948Z,5.35
2022-10-13T11:53:03.234Z,4.78
2022-10-13T11:55:59.152Z,4.82
2022-10-13T11:58:44.600Z,5.45
2022-10-13T12:01:30.270Z,5.18
2022-10-13T12:04:16.013Z,3.78
2022-10-13T12:07:05.197Z,5.35
2022-10-13T12:09:52.516Z,5.63
2022-10-13T12:12:49.561Z,5.25
2022-10-13T12:15:44.433Z,5.20
2022-10-13T12:18:39.117Z,4.80
2022-10-13T12:21:24.848Z,4.82
2022-10-13T12:24:13.435Z,5.57
2022-10-13T12:26:59.377Z,6.18
2022-10-13T12:29:46.526Z,3.83
2022-10-13T12:32:35.891Z,4.07
2022-10-13T12:35:29.472Z,4.20
2022-10-13T12:38:21.085Z,4.35
2022-10-13T12:41:06.658Z,4.30
2022-10-13T12:43:53.212Z,3.97
2022-10-13T12:46:45.104Z,4.30
2022-10-13T12:49:33.550Z,3.95
2022-10-13T12:52:24.207Z,3.20
2022-10-13T12:55:19.037Z,3.50
2022-10-13T12:58:04.625Z,3.58
2022-10-13T13:01:12.183Z,3.10
2022-10-13T13:04:21.070Z,3.88
2022-10-13T13:07:31.417Z,2.83
2022-10-13T13:10:19.870Z,3.72
2022-10-13T13:13:15.336Z,3.85
2022-10-13T13:16:20.291Z,3.58
2022-10-13T13:19:05.699Z,3.42
2022-10-13T13:24:41.925Z,2.78
2022-10-13T13:27:39.091Z,2.53
2022-10-13T13:30:25.083Z,2.88
2022-10-13T13:35:57.175Z,3.25
2022-10-13T13:38:43.104Z,3.17
2022-10-13T13:41:31.073Z,2.88
2022-10-13T13:44:16.590Z,2.35
2022-10-13T13:47:03.279Z,2.85
2022-10-13T13:49:50.031Z,2.72
2022-10-13T13:52:35.772Z,3.30
2022-10-13T13:55:22.448Z,3.28
2022-10-13T13:58:09.224Z,2.85
2022-10-13T14:00:54.888Z,3.70
2022-10-13T14:03:41.301Z,3.17
2022-10-13T14:06:27.520Z,2.60
2022-10-13T14:09:13.276Z,3.15
2022-10-13T14:11:59.240Z,3.22
2022-10-13T14:14:44.665Z,3.00
2022-10-13T14:17:31.221Z,3.05
2022-10-13T14:20:19.705Z,2.75
2022-10-13T14:23:05.042Z,2.97
2022-10-13T14:25:50.677Z,3.25
2022-10-13T14:28:36.201Z,2.63
2022-10-13T14:31:21.670Z,3.53
2022-10-13T14:34:07.303Z,3.00
2022-10-13T14:36:52.754Z,2.80
2022-10-13T14:39:39.836Z,3.10
2022-10-13T14:42:25.564Z,2.90
2022-10-13T14:45:13.085Z,3.10
2022-10-13T14:47:59.031Z,3.40
2022-10-13T14:50:44.674Z,2.83
2022-10-13T14:53:33.241Z,3.13
2022-10-13T14:56:24.998Z,2.95
2022-10-13T14:59:11.963Z,2.80
2022-10-13T15:01:57.604Z,2.65
2022-10-13T15:04:43.144Z,3.28
2022-10-13T15:07:28.689Z,2.97
2022-10-13T15:10:14.146Z,3.00
2022-10-13T15:12:59.874Z,3.47
2022-10-13T15:15:48.820Z,3.80
2022-10-13T15:18:36.225Z,2.88
2022-10-13T15:21:22.737Z,3.25
2022-10-13T15:24:10.829Z,3.20
2022-10-13T15:26:56.665Z,3.13
2022-10-13T15:29:47.601Z,3.03
2022-10-13T15:32:33.276Z,2.95
2022-10-13T15:35:19.596Z,2.78
2022-10-13T15:38:04.987Z,3.40
2022-10-13T15:40:51.024Z,3.10
2022-10-13T15:43:37.077Z,4.13
2022-10-13T15:46:24.156Z,4.10
2022-10-13T15:49:09.905Z,3.50
2022-10-13T15:51:56.115Z,3.85
2022-10-13T15:54:41.859Z,4.03
2022-10-13T15:57:27.457Z,4.35
2022-10-13T16:00:14.884Z,3.83
2022-10-13T16:03:00.291Z,4.07
2022-10-13T16:05:47.132Z,4.43
2022-10-13T16:08:35.444Z,5.05
2022-10-13T16:11:22.905Z,4.43
2022-10-13T16:14:09.140Z,4.25
2022-10-13T16:16:54.561Z,3.90
2022-10-13T16:19:40.097Z,3.70
2022-10-13T16:22:26.178Z,4.10
2022-10-13T16:25:12.039Z,4.25
2022-10-13T16:27:59.425Z,5.65
2022-10-13T16:30:45.025Z,6.03
2022-10-13T16:33:30.532Z,4.75
2022-10-13T16:36:18.236Z,4.80
2022-10-13T16:39:04.166Z,4.85
2022-10-13T16:41:49.983Z,4.53
2022-10-13T16:44:36.560Z,4.15
2022-10-13T16:47:22.146Z,4.85
2022-10-13T16:50:09.885Z,5.05
2022-10-13T16:52:55.700Z,5.47
2022-10-13T16:55:41.793Z,5.75
2022-10-13T16:58:27.580Z,5.25
2022-10-13T17:01:13.727Z,6.00
2022-10-13T17:03:59.759Z,5.70
2022-10-13T17:06:45.627Z,5.63
2022-10-13T17:09:30.991Z,5.78
2022-10-13T17:12:16.605Z,5.60
2022-10-13T17:15:02.277Z,4.70
2022-10-13T17:17:47.741Z,5.00
2022-10-13T17:20:33.217Z,6.65
2022-10-13T17:23:18.782Z,5.53
2022-10-13T17:26:07.812Z,6.53
2022-10-13T17:28:53.858Z,6.57
2022-10-13T17:31:39.524Z,5.97
2022-10-13T17:34:25.156Z,8.32
2022-10-13T17:37:10.716Z,5.95
2022-10-13T17:39:56.100Z,7.78
2022-10-13T17:42:42.588Z,6.63
2022-10-13T17:45:29.456Z,7.00
2022-10-13T17:48:16.673Z,8.40
2022-10-13T17:51:09.410Z,6.90
2022-10-13T17:53:55.541Z,7.38
2022-10-13T17:56:41.235Z,7.43
2022-10-13T17:59:26.651Z,7.10
2022-10-13T18:02:12.345Z,7.30
2022-10-13T18:04:57.809Z,6.63
2022-10-13T18:07:43.251Z,6.65
2022-10-13T18:10:33.864Z,6.70
2022-10-13T18:13:31.372Z,6.75
2022-10-13T18:16:23.648Z,6.63
2022-10-13T18:19:09.079Z,6.32
2022-10-13T18:21:54.612Z,6.55
2022-10-13T18:24:40.209Z,6.65
2022-10-13T18:27:25.972Z,6.32
2022-10-13T18:30:12.017Z,7.40
2022-10-13T18:32:57.869Z,7.07
2022-10-13T18:35:43.272Z,6.53
2022-10-13T18:38:28.883Z,6.28
2022-10-13T18:41:15.762Z,6.95
2022-10-13T18:44:01.585Z,5.90
2022-10-13T18:46:50.936Z,6.53
2022-10-13T18:49:37.249Z,7.22
2022-10-13T18:52:22.650Z,7.75
2022-10-13T18:55:08.460Z,6.53
2022-10-13T18:57:53.964Z,6.85
2022-10-13T19:00:40.139Z,7.45
2022-10-13T19:03:25.783Z,7.28
2022-10-13T19:06:13.949Z,6.63
2022-10-13T19:09:03.914Z,7.43
2022-10-13T19:11:49.407Z,6.60
2022-10-13T19:14:34.889Z,6.78
2022-10-13T19:17:20.416Z,7.05
2022-10-13T19:20:06.555Z,7.47
2022-10-13T19:22:52.954Z,6.88
2022-10-13T19:25:42.747Z,6.35
2022-10-13T19:28:28.364Z,6.93
2022-10-13T19:31:20.576Z,7.88
2022-10-13T19:34:06.180Z,6.72
2022-10-13T19:36:51.660Z,6.93
2022-10-13T19:39:37.469Z,6.85
2022-10-13T19:42:23.114Z,6.47
2022-10-13T19:45:09.736Z,7.18
2022-10-13T19:47:55.376Z,6.47
2022-10-13T19:50:41.797Z,7.00
2022-10-13T19:53:31.629Z,5.68
2022-10-13T19:56:26.827Z,6.75
2022-10-13T19:59:14.412Z,7.65
2022-10-13T20:01:59.955Z,7.00
2022-10-13T20:04:45.461Z,7.80
2022-10-13T20:07:37.603Z,7.43
2022-10-13T20:10:26.112Z,5.90
2022-10-13T20:13:11.983Z,5.65
2022-10-13T20:15:57.508Z,5.78
2022-10-13T20:18:46.690Z,6.40
2022-10-13T20:21:36.054Z,7.88
2022-10-13T20:24:25.876Z,6.15
2022-10-13T20:27:21.264Z,6.45
2022-10-13T20:30:07.511Z,6.97
2022-10-13T20:32:53.155Z,7.72
2022-10-13T20:35:46.270Z,7.55
2022-10-13T20:38:41.841Z,7.90
2022-10-13T20:41:35.444Z,7.07
2022-10-13T20:44:22.409Z,8.43
2022-10-13T20:47:07.858Z,9.23
2022-10-13T20:49:53.403Z,9.23
2022-10-13T20:52:38.906Z,6.70
2022-10-13T20:55:24.512Z,7.38
2022-10-13T20:58:09.784Z,7.30
2022-10-13T21:00:55.666Z,7.15
2022-10-13T21:03:41.549Z,7.90
2022-10-13T21:06:28.498Z,7.18
2022-10-13T21:09:20.210Z,6.70
2022-10-13T21:12:23.737Z,6.85
2022-10-13T21:15:12.410Z,8.40
2022-10-13T21:17:58.440Z,7.47
2022-10-13T21:20:44.080Z,7.47
2022-10-13T21:23:30.208Z,7.35
2022-10-13T21:26:21.180Z,8.80
2022-10-13T21:29:07.534Z,6.80
2022-10-13T21:31:53.654Z,7.65
2022-10-13T21:34:39.843Z,9.10
2022-10-13T21:37:25.878Z,7.40
2022-10-13T21:40:12.076Z,8.70
2022-10-13T21:42:57.956Z,7.25
2022-10-13T21:45:44.308Z,8.48
2022-10-13T21:48:29.952Z,7.32
2022-10-13T21:51:19.547Z,7.13
2022-10-13T21:54:11.173Z,6.28
2022-10-13T21:56:56.894Z,8.82
2022-10-13T21:59:42.696Z,8.32
2022-10-13T22:02:28.999Z,9.05
2022-10-13T22:05:15.275Z,7.15
2022-10-13T22:08:03.770Z,7.30
2022-10-13T22:10:49.679Z,9.00
2022-10-13T22:13:36.210Z,8.48
2022-10-13T22:16:25.634Z,9.77
2022-10-13T22:19:12.028Z,8.80
2022-10-13T22:21:57.945Z,6.25
2022-10-13T22:24:45.327Z,7.70
2022-10-13T22:27:31.169Z,8.85
2022-10-13T22:30:16.912Z,9.40
2022-10-13T22:33:03.426Z,11.10
2022-10-13T22:35:49.723Z,9.10
2022-10-13T22:38:35.843Z,7.57
2022-10-13T22:41:22.824Z,10.57
2022-10-13T22:44:08.904Z,10.88
2022-10-13T22:46:54.693Z,13.90
2022-10-13T22:49:40.290Z,11.77
2022-10-13T22:52:27.289Z,7.03
2022-10-13T22:55:13.163Z,13.98
2022-10-13T22:57:58.669Z,10.07
2022-10-13T23:00:44.096Z,11.30
2022-10-13T23:03:29.647Z,10.13
2022-10-13T23:06:21.277Z,9.02
2022-10-13T23:09:10.764Z,15.35
2022-10-13T23:11:59.780Z,14.93
2022-10-13T23:14:46.409Z,12.82
2022-10-13T23:17:31.992Z,15.77
2022-10-13T23:20:17.484Z,13.65
2022-10-13T23:23:03.078Z,16.15
2022-10-13T23:25:48.699Z,11.52
2022-10-13T23:28:35.056Z,11.05
2022-10-13T23:31:20.606Z,11.73
2022-10-13T23:34:06.110Z,14.20
2022-10-13T23:36:51.743Z,17.20
2022-10-13T23:39:37.448Z,11.65
2022-10-13T23:42:23.128Z,15.25
2022-10-13T23:45:09.171Z,15.60
2022-10-13T23:47:54.535Z,12.93
2022-10-13T23:50:40.584Z,12.35
2022-10-13T23:53:26.178Z,14.63
2022-10-13T23:56:13.047Z,12.93
2022-10-13T23:59:00.909Z,13.98
